Date,TemperatureHighF,TemperatureAvgF,TemperatureLowF,DewpointHighF,DewpointAvgF,DewpointLowF,HumidityHigh,HumidityAvg,HumidityLow,PressureMaxIn,PressureMinIn,WindSpeedMaxMPH,WindSpeedAvgMPH,GustSpeedMaxMPH,PrecipitationSumIn
2013-1-1,45,42,39,32,29,25,67,61,55,30.00,29.88,4,0,4,0.00
2013-1-2,40,36,30,29,22,15,67,58,48,30.22,29.97,5,1,5,0.00
2013-1-3,39,32,27,22,19,15,70,58,50,30.24,30.13,6,0,6,0.00
2013-1-4,44,36,27,26,22,19,73,59,46,30.19,30.08,8,1,8,0.00
2013-1-5,46,38,31,29,23,18,69,55,45,30.37,30.13,6,1,6,0.00
2013-1-6,53,43,31,35,30,25,83,62,46,30.18,30.00,8,0,8,0.00
2013-1-7,47,42,30,31,27,22,73,57,49,30.42,30.13,6,1,6,0.00
2013-1-8,53,40,29,38,30,22,82,70,53,30.41,30.33,9,1,9,0.00
2013-1-9,50,42,34,42,36,28,87,79,62,30.37,30.21,5,0,5,0.00
2013-1-10,55,48,41,37,31,29,62,53,41,30.58,30.37,5,1,5,0.00
2013-1-11,46,42,36,41,35,28,88,75,59,30.49,30.08,4,0,4,0.01
2013-1-12,54,47,43,48,43,40,91,86,79,30.16,30.08,4,0,4,0.00
2013-1-13,55,50,44,54,48,41,95,93,90,30.13,29.95,3,0,3,0.01
2013-1-14,60,55,41,59,49,36,96,81,67,30.28,29.92,7,1,7,0.07
2013-1-15,41,40,37,39,37,35,93,90,83,30.32,30.13,4,0,4,0.71
2013-1-16,42,39,36,41,37,34,94,93,92,30.14,29.83,8,0,8,0.20
2013-1-17,45,42,39,41,37,32,95,81,68,30.12,29.95,5,0,5,0.01
2013-1-18,39,35,30,32,22,14,77,60,41,30.48,30.01,7,1,7,0.00
2013-1-19,53,42,31,34,29,21,73,60,46,30.41,29.94,11,3,11,0.00
2013-1-20,59,45,37,38,26,12,65,50,27,30.06,29.80,11,3,11,0.00
2013-1-21,46,38,31,29,21,13,56,49,42,30.08,29.76,9,1,9,0.00
2013-1-22,31,23,18,14,2,-1,50,41,32,30.28,29.89,9,2,9,0.00
2013-1-23,28,22,14,11,4,0,58,46,37,30.34,30.13,10,1,10,0.00
2013-1-24,28,23,19,16,10,4,80,60,38,30.51,30.07,8,1,8,0.00
2013-1-25,26,22,19,17,9,3,75,57,43,30.50,30.05,5,0,5,0.00
2013-1-26,37,30,24,24,20,17,78,69,57,30.42,30.07,4,0,4,0.01
2013-1-27,40,31,26,23,20,18,77,64,50,30.59,30.42,6,0,6,0.00
2013-1-28,47,38,32,42,32,22,87,80,66,30.49,30.03,7,1,7,0.02
2013-1-29,68,54,43,55,47,39,90,78,61,30.11,29.96,4,0,4,0.00
2013-1-30,71,63,55,62,57,50,93,81,70,29.96,29.19,13,2,13,0.87
2013-1-31,64,45,31,62,31,15,93,58,37,29.91,29.12,14,3,14,0.10
2013-2-1,34,28,20,25,13,5,78,54,40,30.38,29.78,10,2,10,0.00
2013-2-2,33,26,17,25,14,4,81,61,49,30.38,29.99,8,1,8,0.00
2013-2-3,36,31,24,30,26,20,88,80,64,29.99,29.81,6,1,6,0.01
2013-2-4,36,32,24,24,19,13,64,58,50,30.09,29.87,7,1,7,0.00
2013-2-5,44,38,31,30,27,22,71,65,58,29.92,29.83,3,0,3,0.00
2013-2-6,47,39,32,35,27,22,80,64,49,30.34,29.92,6,1,6,0.00
2013-2-7,42,36,28,30,26,20,75,66,57,30.44,30.18,5,1,5,0.00
2013-2-8,43,38,34,39,32,24,90,80,60,30.18,29.71,9,1,9,0.01
2013-2-9,41,35,30,25,20,16,67,55,44,30.38,29.89,9,2,9,0.00
2013-2-10,45,36,23,27,20,14,74,55,38,30.47,30.22,6,0,6,0.00
2013-2-11,54,45,38,50,41,27,90,85,63,30.22,29.69,8,1,8,0.09
2013-2-12,58,49,42,43,32,28,87,53,37,29.98,29.78,8,1,8,0.00
2013-2-13,48,40,35,36,31,26,87,71,56,29.94,29.63,4,1,4,0.19
2013-2-14,52,40,32,35,30,27,89,71,45,30.00,29.75,5,0,5,0.00
2013-2-15,61,45,32,41,34,28,86,67,40,30.02,29.86,8,1,8,0.00
2013-2-16,41,38,32,35,28,18,86,68,55,29.93,29.81,5,1,5,0.00
2013-2-17,34,29,25,19,13,8,63,51,39,30.18,29.81,11,2,11,0.00
2013-2-18,45,31,21,20,13,8,58,47,35,30.37,30.14,9,1,9,0.00
2013-2-19,46,40,36,41,31,20,85,69,50,30.15,29.71,10,2,10,0.01
2013-2-20,41,35,26,27,18,10,63,50,39,30.15,29.83,8,2,8,0.00
2013-2-21,43,31,24,20,15,10,59,51,40,30.31,30.12,7,2,7,0.00
2013-2-22,36,33,31,29,23,17,84,67,55,30.37,30.20,5,0,5,0.03
2013-2-23,46,40,34,44,37,29,91,89,84,30.20,29.78,2,0,2,0.08
2013-2-24,55,44,34,42,33,20,90,68,40,30.10,29.77,7,2,7,0.00
2013-2-25,49,38,29,28,24,19,68,57,42,30.20,30.09,5,1,5,0.00
2013-2-26,45,38,30,43,33,22,93,81,67,30.21,29.57,10,1,10,0.59
2013-2-27,57,48,41,46,41,33,94,76,54,29.68,29.49,6,1,6,0.01
2013-2-28,51,45,41,37,32,28,79,61,43,29.71,29.61,9,1,9,0.01
2013-3-1,47,42,38,32,29,26,67,60,50,29.86,29.70,7,1,7,0.00
2013-3-2,40,35,31,26,23,20,69,61,51,29.87,29.79,6,1,6,0.00
2013-3-3,43,35,29,24,21,17,70,56,43,29.89,29.77,7,2,7,0.00
2013-3-4,48,36,29,24,18,15,62,50,37,30.02,29.89,9,2,9,0.00
2013-3-5,55,41,30,30,22,16,71,48,24,30.06,29.79,5,1,5,0.00
2013-3-6,40,36,34,36,33,30,92,88,70,29.97,29.57,9,2,9,1.08
2013-3-7,53,43,35,34,30,28,80,62,41,30.13,29.97,10,2,10,0.02
2013-3-8,52,43,37,31,28,27,71,56,43,30.24,30.10,10,2,10,0.00
2013-3-9,67,46,34,33,27,24,67,48,26,30.33,30.23,5,1,5,0.00
2013-3-10,66,48,32,36,27,20,79,48,19,30.32,30.20,7,1,7,0.00
2013-3-11,62,52,43,50,44,31,85,72,57,30.24,29.92,5,1,5,0.00
2013-3-12,60,54,42,55,46,32,92,74,55,29.95,29.66,6,2,6,0.54
2013-3-13,54,43,33,35,28,20,78,57,33,30.05,29.88,9,2,9,0.00
2013-3-14,50,39,33,22,19,16,57,45,30,30.12,30.00,10,2,10,0.00
2013-3-15,61,44,29,32,25,18,66,48,32,30.08,29.76,13,2,13,0.00
2013-3-16,63,51,41,46,38,30,74,61,49,29.89,29.61,6,1,6,0.03
2013-3-17,43,40,34,34,31,28,80,70,61,30.26,29.88,3,0,3,0.00
2013-3-18,39,37,33,36,30,24,90,76,55,30.31,29.86,7,1,7,0.29
2013-3-19,63,47,38,43,32,12,90,64,21,29.89,29.69,12,2,12,0.00
2013-3-20,57,46,36,22,17,13,42,32,24,29.98,29.74,14,2,14,0.00
2013-3-21,43,36,29,26,17,10,72,47,36,29.89,29.73,9,2,9,0.00
2013-3-22,52,38,27,24,17,10,54,44,31,29.99,29.86,8,2,8,0.00
2013-3-23,58,43,28,29,23,17,66,47,29,30.02,29.89,9,1,9,0.00
2013-3-24,46,39,32,30,23,19,81,53,43,29.99,29.68,5,1,5,0.01
2013-3-25,38,36,35,34,33,31,88,87,86,29.68,29.57,2,0,2,0.06
2013-3-26,53,43,33,38,32,28,90,68,45,29.96,29.68,5,1,5,0.00
2013-3-27,52,44,38,32,29,26,68,55,42,30.10,29.96,9,2,9,0.00
2013-3-28,50,44,37,33,30,26,66,57,46,30.21,30.07,9,1,9,0.00
2013-3-29,60,48,40,36,31,26,67,52,35,30.24,30.12,8,1,8,0.00
2013-3-30,64,50,36,37,29,24,70,48,27,30.21,30.09,6,1,6,0.00
2013-3-31,56,49,43,48,39,27,85,69,50,30.11,29.72,7,1,7,0.00
2013-4-1,68,51,41,50,38,24,92,65,38,29.97,29.70,10,1,10,0.01
2013-4-2,54,44,36,24,18,14,51,37,24,30.15,29.97,11,2,11,0.00
2013-4-3,56,43,31,24,17,13,53,37,22,30.38,30.15,8,2,8,0.00
2013-4-4,53,40,28,32,20,14,75,46,29,30.40,30.07,7,1,7,0.00
2013-4-5,68,51,38,42,33,23,88,56,26,30.08,29.80,6,1,6,0.13
2013-4-6,60,49,39,30,24,18,54,37,27,30.31,30.02,5,1,5,0.00
2013-4-7,72,56,40,43,37,28,71,51,33,30.27,29.96,12,2,12,0.00
2013-4-8,84,69,52,52,46,40,66,45,30,30.06,29.92,8,1,8,0.00
2013-4-9,89,76,60,57,53,48,67,46,31,30.06,29.90,8,2,8,0.00
2013-4-10,94,80,65,60,55,51,64,44,29,29.95,29.75,10,2,10,0.00
2013-4-11,88,75,57,62,57,52,83,56,34,29.86,29.70,7,1,7,0.00
2013-4-12,78,62,53,70,57,49,93,85,73,29.79,29.54,6,1,6,0.36
2013-4-13,72,59,45,54,43,38,85,58,34,29.92,29.72,8,1,8,0.00
2013-4-14,71,59,44,43,41,36,78,54,34,30.12,29.92,6,1,6,0.00
2013-4-15,66,60,55,52,48,44,73,64,57,30.27,30.16,4,1,4,0.00
2013-4-16,79,65,56,61,54,47,80,69,50,30.30,30.10,8,1,8,0.00
2013-4-17,81,68,58,65,59,55,90,72,51,30.22,30.09,5,1,5,0.00
2013-4-18,80,67,60,67,59,54,90,75,54,30.21,29.98,6,1,6,0.02
2013-4-19,81,69,52,67,61,48,89,77,60,29.98,29.55,12,2,12,0.79
2013-4-20,64,55,47,48,35,28,89,50,31,30.31,29.76,6,2,6,0.04
2013-4-21,58,50,41,30,27,23,53,42,30,30.58,30.31,6,1,6,0.00
2013-4-22,60,55,50,40,38,36,62,53,46,30.51,30.38,6,2,6,0.00
2013-4-23,65,53,48,46,42,37,78,65,49,30.39,30.10,4,1,4,0.00
2013-4-24,81,63,45,59,50,40,87,64,39,30.11,29.77,11,2,11,0.00
2013-4-25,69,58,46,49,36,32,62,46,28,30.30,29.94,7,1,7,0.01
2013-4-26,71,58,45,41,38,35,74,49,29,30.43,30.29,5,1,5,0.00
2013-4-27,76,61,45,48,40,36,77,50,32,30.40,30.26,5,1,5,0.00
2013-4-28,69,59,47,49,43,38,77,56,34,30.28,30.12,7,1,7,0.00
2013-4-29,61,57,54,58,52,43,90,85,59,30.15,30.02,4,0,4,0.18
2013-4-30,62,57,55,58,54,49,92,88,75,30.26,30.06,4,1,4,0.01
2013-5-1,74,61,48,50,44,38,80,57,30,30.41,30.26,4,1,4,0.01
2013-5-2,72,58,45,52,46,40,86,65,46,30.43,30.30,6,1,6,0.00
2013-5-3,70,58,48,51,44,39,85,61,38,30.36,30.28,5,1,5,0.00
2013-5-4,71,59,48,48,44,38,79,59,40,30.32,30.15,5,1,5,0.00
2013-5-5,66,55,45,46,42,38,78,63,47,30.23,30.13,5,1,5,0.00
2013-5-6,63,56,52,57,51,44,89,81,74,30.16,30.03,5,1,5,0.00
2013-5-7,64,61,58,62,58,55,93,91,89,30.04,29.90,4,1,4,0.34
2013-5-8,74,62,57,62,56,53,94,83,54,29.98,29.90,8,0,8,0.02
2013-5-9,77,64,55,64,58,53,92,83,56,29.98,29.89,5,1,5,0.35
2013-5-10,88,72,56,70,60,54,95,71,42,30.00,29.84,4,1,4,0.34
2013-5-11,82,69,63,68,63,60,91,81,57,29.91,29.67,6,1,6,0.07
2013-5-12,68,62,51,61,43,30,89,53,30,30.01,29.72,5,1,5,0.00
2013-5-13,64,54,43,38,31,26,68,43,25,30.15,30.01,6,1,6,0.00
2013-5-14,68,55,40,41,34,28,70,48,31,30.20,30.02,8,1,8,0.00
2013-5-15,90,70,54,65,54,40,71,57,42,30.03,29.65,8,1,8,0.00
2013-5-16,88,77,66,66,60,54,70,57,42,29.89,29.72,6,1,6,0.00
2013-5-17,87,75,61,62,54,48,79,51,30,30.12,29.89,5,1,5,0.00
2013-5-18,68,64,60,58,55,49,87,74,52,30.23,30.12,3,0,3,0.04
2013-5-19,80,72,68,68,65,64,85,79,66,30.11,30.06,2,0,2,0.01
2013-5-20,90,73,66,73,67,63,91,81,55,30.10,29.95,5,1,5,0.00
2013-5-21,89,75,68,73,68,65,91,79,58,29.98,29.86,6,1,6,0.00
2013-5-22,91,79,70,75,70,64,91,74,54,29.91,29.80,6,1,6,0.03
2013-5-23,85,74,65,71,67,60,89,79,60,29.89,29.73,5,1,5,0.18
2013-5-24,65,58,50,61,49,36,93,72,54,30.13,29.71,8,2,8,0.02
2013-5-25,72,57,45,42,37,33,65,49,30,30.17,30.06,7,2,7,0.00
2013-5-26,78,63,50,43,38,35,57,41,25,30.19,30.09,6,1,6,0.00
2013-5-27,77,65,53,51,44,39,63,47,30,30.26,30.16,4,0,4,0.04
2013-5-28,89,70,59,68,59,48,90,70,49,30.18,30.03,5,1,5,0.80
2013-5-29,95,79,67,73,67,64,92,70,42,30.11,30.04,6,1,6,0.00
2013-5-30,97,82,68,73,67,62,80,61,41,30.16,30.08,8,1,8,0.00
2013-5-31,96,82,67,71,65,62,83,60,38,30.13,30.00,8,1,8,0.00
2013-6-1,96,83,70,73,67,62,78,59,40,30.02,29.89,7,1,7,0.00
2013-6-2,87,78,70,72,67,63,89,70,59,29.90,29.81,9,2,9,0.21
2013-6-3,85,74,67,71,67,60,93,79,58,29.92,29.79,4,1,4,0.27
2013-6-4,86,71,61,59,50,45,72,51,28,30.10,29.92,5,1,5,0.00
2013-6-5,87,71,56,61,54,49,80,57,38,30.15,30.03,4,1,4,0.00
2013-6-6,76,69,62,64,60,52,91,73,60,30.07,29.83,6,1,6,0.30
2013-6-7,71,69,66,69,67,63,94,94,91,29.83,29.55,3,0,3,1.94
2013-6-8,93,73,66,67,64,60,94,74,42,30.07,29.67,5,0,5,0.01
2013-6-9,86,75,66,73,66,60,85,74,57,30.17,30.06,4,0,4,0.02
2013-6-10,83,73,69,78,70,66,94,90,82,30.08,29.76,4,1,4,1.71
2013-6-11,88,76,66,72,66,63,95,74,54,29.82,29.75,8,1,8,0.00
2013-6-12,96,82,70,71,66,62,75,61,42,29.84,29.75,5,1,5,0.00
2013-6-13,91,77,71,74,67,59,87,72,49,29.78,29.43,8,2,8,0.01
2013-6-14,87,73,61,60,56,53,85,59,36,29.86,29.67,6,1,6,0.02
2013-6-15,91,81,70,62,58,54,62,45,35,30.05,29.96,5,1,5,0.00
2013-6-16,87,75,67,69,63,56,77,68,51,30.00,29.85,4,0,4,0.00
2013-6-17,91,81,71,72,69,64,81,68,52,29.94,29.84,8,1,8,0.00
2013-6-18,78,73,65,70,68,62,91,84,75,29.89,29.76,3,0,3,0.16
2013-6-19,83,71,65,67,63,58,92,77,54,30.13,29.86,2,0,2,0.01
2013-6-20,85,73,63,68,60,53,90,67,44,30.25,30.13,5,1,5,0.00
2013-6-21,93,74,59,66,56,52,81,57,29,30.28,30.20,3,0,3,0.00
2013-6-22,96,78,64,69,64,60,89,65,40,30.23,30.11,6,1,6,0.00
2013-6-23,94,77,70,77,69,64,92,79,53,30.16,30.05,4,0,4,0.67
2013-6-24,95,80,72,77,71,67,92,75,47,30.10,30.00,5,0,5,0.01
2013-6-25,98,83,69,75,70,63,91,68,43,30.02,29.86,5,1,5,0.05
2013-6-26,94,81,70,76,70,65,87,71,51,29.90,29.78,6,1,6,0.00
2013-6-27,86,76,70,76,70,65,91,82,68,29.81,29.60,7,1,7,0.01
2013-6-28,92,77,71,77,70,68,91,81,55,29.61,29.53,6,1,6,0.00
2013-6-30,92,81,76,77,74,72,91,80,59,29.82,29.72,4,0,4,0.07
2013-7-1,87,77,71,78,72,68,93,85,67,29.97,29.81,5,1,5,0.10
2013-7-2,84,77,73,76,72,71,91,86,74,30.16,29.96,6,1,6,0.01
2013-7-3,90,78,72,79,73,69,94,85,66,30.21,30.14,6,0,6,0.13
2013-7-4,97,82,74,78,73,71,92,76,47,30.24,30.14,8,1,8,0.00
2013-7-5,94,83,74,77,73,70,89,72,52,30.21,30.10,8,1,8,0.00
2013-7-6,96,85,76,78,73,70,88,69,48,30.17,30.05,6,0,6,0.00
2013-7-7,95,83,72,78,72,66,86,70,53,30.09,29.97,7,1,7,0.03
2013-7-8,95,79,71,76,70,67,92,75,45,30.09,30.01,5,0,5,0.14
2013-7-9,92,80,72,77,72,67,88,77,60,30.08,29.97,4,0,4,0.00
2013-7-10,94,81,73,79,74,69,90,81,59,29.99,29.83,10,1,10,0.07
2013-7-11,89,79,73,74,71,69,92,78,56,29.90,29.81,4,0,4,0.01
2013-7-12,77,71,68,71,68,65,94,89,78,30.00,29.87,5,0,5,1.43
2013-7-13,87,74,70,74,70,67,92,86,66,30.25,29.99,3,0,3,0.02
2013-7-14,96,82,73,79,73,70,95,76,49,30.31,30.24,5,0,5,0.00
2013-7-15,103,86,72,80,73,68,91,68,41,30.28,30.15,3,0,3,0.00
2013-7-16,103,88,80,77,71,67,74,59,35,30.21,30.13,3,0,3,0.00
2013-7-17,101,87,77,77,72,68,78,62,41,30.19,30.06,2,0,2,0.00
2013-7-18,102,89,77,80,76,71,83,66,45,30.09,29.97,4,0,4,0.00
2013-7-19,99,89,79,81,76,72,81,66,49,29.99,29.85,7,1,7,0.00
2013-7-20,98,87,79,78,74,70,82,67,44,29.88,29.76,8,1,8,0.00
2013-7-21,95,83,74,74,71,68,82,68,47,29.92,29.85,5,0,5,0.00
2013-7-22,94,82,74,76,73,69,89,74,53,29.90,29.73,6,0,6,0.02
2013-7-23,93,81,73,75,70,66,92,72,47,29.76,29.61,6,0,6,0.10
2013-7-24,91,79,72,70,66,58,80,64,46,29.88,29.66,5,1,5,0.00
2013-7-25,89,74,65,62,58,52,71,57,40,30.01,29.87,5,1,5,0.00
2013-7-26,92,76,64,66,61,58,85,62,38,30.07,29.99,7,0,7,0.00
2013-7-27,88,75,68,72,67,62,90,76,54,30.03,29.89,10,1,10,0.14
2013-7-28,89,76,69,74,70,66,91,82,60,29.97,29.86,3,0,3,0.00
2013-7-29,86,75,65,69,60,56,87,62,38,30.14,29.95,5,0,5,0.00
2013-7-30,87,75,63,64,59,55,79,59,41,30.21,30.12,5,0,5,0.00
2013-7-31,84,76,68,70,66,62,89,73,58,30.13,30.00,5,0,5,0.01
2013-8-1,84,74,68,76,69,65,94,86,71,30.00,29.77,3,0,5,0.21
2013-8-2,90,78,67,70,66,64,92,68,45,29.94,29.82,10,0,10,0.00
2013-8-3,84,74,69,70,65,63,86,74,57,29.95,29.89,3,0,3,0.02
2013-8-4,84,74,66,65,60,53,90,64,40,30.01,29.88,7,1,7,0.00
2013-8-5,86,73,62,62,56,52,75,57,37,30.08,29.98,6,0,6,0.00
2013-8-6,74,70,68,68,64,58,87,80,67,30.05,29.98,4,0,4,0.00
2013-8-7,87,77,70,74,69,65,89,78,63,30.05,29.97,5,1,5,0.00
2013-8-8,89,80,74,76,72,70,87,77,62,30.01,29.95,5,1,5,0.00
2013-8-9,95,85,77,78,74,70,87,71,53,29.95,29.82,9,1,9,0.00
2013-8-10,87,80,73,70,68,64,80,68,51,30.06,29.91,4,0,4,0.01
2013-8-11,88,79,72,72,68,65,84,70,51,30.09,29.98,8,0,8,0.00
2013-8-12,94,82,71,73,68,65,88,66,41,30.00,29.88,4,0,4,0.00
2013-8-13,89,79,70,74,70,64,90,74,56,29.89,29.71,6,1,6,0.45
2013-8-14,78,69,61,68,54,50,91,59,44,30.07,29.78,7,1,7,0.00
2013-8-15,83,70,57,57,53,49,79,56,34,30.17,30.06,5,0,5,0.00
2013-8-16,84,71,58,63,55,52,85,61,38,30.17,30.10,4,0,4,0.00
2013-8-17,64,62,61,55,54,54,79,75,70,30.19,30.17,0,0,0,0.00
2013-8-19,74,71,69,67,65,64,84,81,78,30.09,30.05,2,0,2,0.00
2013-8-20,91,78,65,74,68,62,93,73,51,30.14,30.06,6,0,6,0.00
2013-8-21,92,80,71,76,70,67,92,75,50,30.17,30.05,6,1,6,0.04
2013-8-22,91,81,72,75,69,66,92,70,49,30.07,29.90,5,1,5,0.00
2013-8-23,79,73,63,71,64,57,87,75,65,30.09,29.91,2,0,2,0.12
2013-8-24,86,73,61,65,60,57,90,67,41,30.31,30.09,3,0,3,0.00
2013-8-25,86,73,61,69,59,53,91,64,37,30.39,30.25,5,0,5,0.00
2013-8-26,92,77,64,66,61,54,75,59,40,30.28,29.99,6,1,6,0.00
2013-8-27,94,82,72,72,68,63,75,63,45,29.99,29.84,5,1,5,0.00
2013-8-28,82,77,73,75,70,67,89,80,68,29.89,29.79,4,0,4,0.07
2013-8-29,89,78,73,74,70,66,91,77,55,30.00,29.79,4,0,4,0.00
2013-8-30,90,79,71,73,69,66,86,73,55,30.02,29.86,6,1,6,0.00
2013-8-31,92,81,72,74,71,67,87,72,52,29.89,29.77,7,1,7,0.00
2013-9-1,95,82,70,74,70,66,88,69,45,29.82,29.73,5,0,5,0.00
2013-9-2,92,80,71,75,71,66,92,75,53,29.79,29.69,6,1,6,0.07
2013-9-3,87,79,70,72,64,55,85,62,42,29.94,29.70,4,1,4,0.00
2013-9-4,88,73,62,60,56,53,74,56,32,30.06,29.93,6,1,6,0.00
2013-9-5,87,75,63,64,58,50,79,57,44,30.10,29.97,6,1,6,0.00
2013-9-6,81,69,59,54,50,46,66,51,35,30.24,30.10,4,1,4,0.00
2013-9-7,82,70,56,62,57,50,82,66,50,30.12,29.91,6,1,6,0.00
2013-9-8,90,77,66,67,64,58,84,64,46,30.02,29.84,5,1,5,0.00
2013-9-9,82,74,65,67,60,50,79,62,54,30.18,30.02,4,1,4,0.00
2013-9-10,94,81,72,75,71,66,87,72,50,30.15,30.06,5,1,5,0.00
2013-9-11,96,84,74,78,72,70,89,70,46,30.12,29.98,5,1,5,0.00
2013-9-12,94,79,70,75,70,65,91,74,48,29.98,29.72,7,1,7,0.26
2013-9-13,80,71,62,68,59,50,92,68,39,29.91,29.67,5,1,5,0.00
2013-9-14,75,62,54,50,47,44,72,58,40,30.14,29.91,5,1,5,0.00
2013-9-15,80,65,50,58,51,45,86,64,44,30.21,30.07,6,0,6,0.00
2013-9-16,77,66,60,61,57,53,85,74,55,30.20,30.01,4,0,4,0.05
2013-9-17,75,61,53,54,46,40,81,60,35,30.41,30.20,4,1,4,0.00
2013-9-18,77,61,48,54,47,43,89,63,35,30.33,30.16,5,0,5,0.00
2013-9-19,81,66,52,60,54,48,89,67,46,30.18,30.05,6,0,6,0.00
2013-9-20,84,69,56,64,58,52,89,68,47,30.07,29.93,5,0,5,0.00
2013-9-21,78,68,62,65,61,56,92,79,59,29.95,29.66,6,1,6,0.43
2013-9-22,74,65,58,61,56,48,94,73,50,29.92,29.70,4,1,4,0.01
2013-9-23,71,59,53,50,46,44,78,63,46,30.07,29.92,5,1,5,0.00
2013-9-24,77,60,48,52,47,42,85,65,41,30.09,29.92,5,0,5,0.00
2013-9-25,76,62,50,54,48,43,86,64,34,29.96,29.85,4,0,4,0.00
2013-9-26,80,64,56,58,53,50,83,68,44,30.05,29.89,3,0,3,0.00
2013-9-27,77,64,56,61,55,50,85,74,56,30.22,30.05,2,0,2,0.00
2013-9-28,71,64,57,59,54,51,86,72,57,30.28,30.19,2,0,2,0.00
2013-9-29,75,62,52,60,54,49,92,75,55,30.19,30.04,2,0,2,0.00
2013-9-30,81,64,53,60,54,49,90,70,46,30.07,29.96,3,0,3,0.00
2013-10-1,85,69,57,63,58,52,85,69,45,30.05,29.94,5,0,5,0.00
2013-10-2,89,73,60,65,60,54,86,64,40,30.07,29.97,5,0,5,0.00
2013-10-3,86,73,61,67,62,56,86,70,50,30.10,30.01,3,0,3,0.00
2013-10-4,91,74,63,70,64,59,92,71,46,30.07,29.98,4,0,4,0.00
2013-10-5,89,75,66,69,65,62,89,72,50,30.07,29.97,3,0,3,0.00
2013-10-6,89,76,66,71,66,62,90,72,48,30.00,29.89,8,1,8,0.00
2013-10-7,76,67,56,70,62,49,93,85,72,30.03,29.77,7,1,7,0.49
2013-10-8,68,59,50,51,48,46,86,69,50,30.25,30.03,3,0,3,0.00
2013-10-9,62,58,54,52,50,47,89,76,67,30.29,30.17,5,1,5,0.10
2013-10-10,58,56,54,57,54,51,95,93,88,30.17,29.94,4,1,4,1.17
2013-10-11,63,60,56,62,58,55,96,95,95,29.95,29.89,2,0,2,2.09
2013-10-12,68,63,61,63,60,59,96,90,80,30.13,30.02,4,1,4,0.15
2013-10-13,65,61,58,60,58,54,94,89,81,30.29,30.12,4,0,4,0.01
2013-10-14,74,61,55,61,55,51,88,80,61,30.31,30.20,2,0,2,0.00
2013-10-15,74,61,52,59,53,49,93,76,47,30.22,30.05,2,0,2,0.00
2013-10-16,72,64,60,63,59,56,90,85,72,30.06,29.89,2,0,2,0.00
2013-10-17,77,68,60,67,62,57,93,83,69,29.89,29.69,6,1,6,0.00
2013-10-18,68,59,50,57,46,43,78,64,46,29.99,29.79,6,1,6,0.00
2013-10-19,66,57,48,58,51,43,89,80,63,29.98,29.76,4,0,5,0.00
2013-10-20,64,54,46,50,40,36,82,59,40,30.07,29.83,5,1,5,0.00
2013-10-21,68,53,42,50,43,38,90,69,41,30.13,29.94,6,0,6,0.00
2013-10-22,67,56,48,54,47,40,84,72,57,29.94,29.79,3,0,3,0.00
2013-10-23,59,51,45,44,39,36,83,65,46,29.87,29.61,4,0,4,0.06
2013-10-24,53,46,40,37,32,28,75,61,44,30.12,29.87,6,1,6,0.00
2013-10-25,56,45,37,36,32,29,74,60,46,30.30,30.11,6,1,6,0.00
2013-10-26,57,46,33,36,32,26,80,59,42,30.28,29.92,9,1,9,0.00
2013-10-27,62,50,41,41,36,32,74,59,44,30.12,29.92,8,0,8,0.00
2013-10-28,64,50,40,48,40,34,85,69,47,30.25,30.12,3,0,3,0.00
2013-10-29,64,52,41,48,42,37,85,71,50,30.36,30.25,3,0,3,0.00
2013-10-30,64,56,51,57,51,44,90,83,76,30.30,30.13,5,0,5,0.02
2013-10-31,69,62,54,62,57,51,92,85,74,30.17,29.76,6,1,6,0.00
2013-11-1,73,67,60,64,61,56,90,80,70,29.76,29.57,9,1,9,0.10
2013-11-2,69,59,50,57,48,39,91,68,48,29.86,29.61,5,0,5,0.00
2013-11-3,57,50,42,43,35,26,77,58,32,30.43,29.86,6,1,6,0.00
2013-11-4,48,41,35,27,25,22,65,54,43,30.61,30.43,4,0,4,0.00
2013-11-5,59,49,38,46,39,27,76,68,60,30.59,30.43,3,0,3,0.00
2013-11-6,70,59,51,54,50,46,83,74,57,30.44,30.04,5,0,5,0.00
2013-11-7,64,54,44,57,46,26,91,75,47,30.06,29.85,8,2,8,0.01
2013-11-8,52,43,36,34,27,25,70,54,39,30.30,30.06,8,1,8,0.00
2013-11-9,55,44,32,33,30,24,79,59,41,30.33,30.01,7,1,7,0.00
2013-11-10,64,50,39,42,31,27,70,51,32,30.20,29.92,9,1,9,0.00
2013-11-11,57,48,36,35,31,26,69,52,40,30.29,29.99,7,1,7,0.00
2013-11-12,51,42,33,38,26,15,63,51,43,30.38,29.94,6,1,6,0.00
2013-11-13,43,36,30,23,20,16,62,52,44,30.46,30.37,8,1,8,0.00
2013-11-14,55,39,27,29,23,17,69,53,30,30.37,30.20,5,0,5,0.00
2013-11-15,60,45,32,38,30,23,75,56,33,30.26,30.16,4,0,4,0.05
2013-11-16,53,50,46,49,46,39,90,86,76,30.30,30.21,2,0,2,0.27
2013-11-17,65,58,52,58,54,49,92,87,79,30.21,29.73,2,0,2,0.00
2013-11-18,69,60,51,60,43,28,91,59,28,29.92,29.67,6,1,6,0.15
2013-11-19,51,42,40,29,26,25,58,55,42,30.35,29.92,5,1,5,0.00
2013-11-20,47,39,33,29,26,22,73,58,45,30.54,30.35,5,1,5,0.00
2013-11-21,52,43,33,39,34,26,80,70,60,30.54,30.37,2,0,2,0.00
2013-11-22,63,54,45,53,46,38,81,75,67,30.38,29.97,3,0,3,0.00
2013-11-23,59,46,33,50,29,15,74,53,39,30.19,29.99,6,2,6,0.00
2013-11-24,33,28,24,15,8,5,50,43,36,30.51,30.18,9,2,9,0.00
2013-11-25,37,30,22,16,12,8,56,47,39,30.56,30.32,6,0,6,0.00
2013-11-26,45,37,34,43,27,16,92,70,45,30.32,29.56,5,0,5,1.29
2013-11-27,40,37,30,37,32,17,91,81,60,30.02,29.48,7,2,7,0.60
2013-11-28,38,32,26,23,18,15,70,57,46,30.46,30.02,9,1,9,0.00
2013-11-29,42,34,25,26,22,19,79,61,46,30.70,30.43,6,1,6,0.00
2013-11-30,39,33,27,25,22,18,71,62,52,30.70,30.35,3,0,3,0.00
2013-12-1,49,37,26,34,28,20,83,69,54,30.35,29.99,4,0,4,0.00
2013-12-2,49,45,41,41,36,31,75,72,67,29.99,29.84,2,0,2,0.00
2013-12-3,56,47,41,42,37,34,81,70,56,29.97,29.85,6,0,6,0.00
2013-12-4,57,50,40,49,43,35,85,79,72,30.06,29.97,2,0,2,0.00
2013-12-5,70,60,53,60,55,48,89,84,71,30.05,29.90,13,2,13,0.00
2013-12-6,64,51,39,61,48,37,92,91,87,30.14,29.86,6,1,6,0.54
2013-12-7,44,39,36,37,35,32,92,85,66,30.38,30.11,5,1,5,0.15
2013-12-9,34,34,34,32,32,31,92,92,92,29.77,29.75,2,0,2,0.00
2013-12-10,36,33,26,34,31,23,93,91,81,30.27,29.66,4,0,4,0.08
2013-12-11,41,30,22,30,24,18,87,77,63,30.46,30.27,4,0,4,0.00
2013-12-12,32,28,24,25,18,13,83,65,52,30.49,30.30,3,0,3,0.00
2013-12-13,42,33,25,24,20,16,71,60,46,30.36,30.26,3,0,3,0.00
2013-12-14,41,36,33,34,30,24,90,77,68,30.37,29.77,2,0,2,0.48
2013-12-15,47,38,30,39,30,22,91,76,59,29.99,29.68,9,1,9,0.00
2013-12-16,38,36,32,27,26,24,75,68,61,30.24,29.99,3,0,3,0.00
2013-12-17,39,36,34,33,28,26,78,75,71,30.21,29.99,3,0,3,0.00
2013-12-18,33,31,29,23,22,22,75,71,67,30.27,30.25,0,0,0,0.00
2013-12-19,58,42,28,38,30,21,80,62,44,30.25,30.12,5,1,5,0.00
2013-12-20,59,52,43,47,36,29,68,55,48,30.16,30.05,6,2,6,0.00
2013-12-21,70,62,54,59,51,44,79,69,61,30.07,29.95,6,2,6,0.00
2013-12-22,70,64,60,63,59,56,89,84,75,30.06,29.88,8,2,8,0.18
2013-12-23,62,55,40,60,50,29,93,84,67,30.28,29.98,5,1,5,0.49
2013-12-24,41,35,24,29,22,10,70,59,46,30.53,30.25,5,2,5,0.01
2013-12-25,32,26,21,17,13,10,70,58,49,30.62,30.44,3,1,3,0.00
2013-12-26,44,32,24,28,22,17,80,68,52,30.44,30.27,5,1,5,0.00
2013-12-27,48,36,27,29,24,18,71,60,45,30.48,30.36,5,0,5,0.00
2013-12-28,56,41,29,34,28,22,78,60,43,30.38,30.16,6,1,6,0.00
2013-12-29,47,44,39,44,38,30,89,79,53,30.16,29.59,5,1,5,1.14
2013-12-30,46,39,34,40,33,24,90,78,63,30.23,29.87,4,1,4,0.00
2013-12-31,46,36,30,32,23,18,71,60,45,30.37,30.15,9,1,9,0.00
2014-1-1,48,36,27,31,25,17,77,65,52,30.47,30.19,2,0,2,0.00
2014-1-2,39,34,31,33,30,26,89,83,78,30.17,29.66,2,0,2,0.03